[Jeden Montag | 1730z - 2030z | EDDN] Nürnberg Monday

Zu Eventkalender hinzugefügt: 543 Daten

Dietmar Brinschwitz

940593
RG München - NAV
Vorletzte Möglichkeit für den NüMo im Jahre 2019

Wir sind da und haben leckeres GHlühweinwetter mit Achterbahneffekt in Aussicht::LOL:
EDDN 231750Z 25010KT 9999 FEW028 BKN040 06/03 Q1012 NOSIG

TAF EDDN 231700Z 2318/2418 26007KT 9999 BKN035
PROB30
TEMPO 2318/2407 BKN010
BECMG 2403/2405 19006KT
TEMPO 2411/2415 RA
TEMPO 2415/2418 25015G25KT SHRA SCT014TCU
 

Dietmar Brinschwitz

940593
RG München - NAV
Wir öffnen gleich den Albrecht-Dürer-Airport der Frankenmetropole.

DüDo ist auch wieder am Start für bekannte Rennstrecke :)


Wettertechnisch könnte es heute interessant werden:
EDDN 271750Z 18013KT 9999 -RA FEW033 BKN046 07/04 Q1009 NOSIG

TAF EDDN 271700Z 2718/2818 16008KT 9999 BKN035
PROB30
TEMPO 2718/2804 4000 RADZ
TEMPO 2723/2809 25015G30KT
BECMG 2809/2811 25015G30KT
TEMPO 2809/2812 27020G45KT 4000 SHRA BKN020CB
TEMPO 2812/2818 27020G45KT 2500 SHSNRA BKN012CB
PROB30
TEMPO 2812/2818 TSSNRA BKN012CB
Bis gleich ;-)
 

Bernd Mehl

1125821
Stürmische Zeiten am Nürnberger Albrecht-Dürer-Airport.

Unsere Controller-Crew - in voller Besetzung - wird euch unterstützen einen interessanten Flug zu haben.
TAF EDDN 101100Z 1012/1112 25030G45KT 9999 SCT040
TEMPO 1012/1016 29040G55KT 3500 SHRA BKN025CB
BECMG 1016/1018 25015G35KT
TEMPO 1018/1021 25035G45KT 3500 SHRA BKN020CB
TEMPO 1021/1112 27020G50KT 2000 SHGS BKN020CB
PROB30 TEMPO 1021/1112 TSGS BKN020CB=
Und wer die Rennstrecke nach Düsseldorf nutzt... Auch dort darf er mit interessanten Wetterbedingungen rechnen.
TAF EDDL 101100Z 1012/1118 25020G35KT 9999 SCT035CB
TEMPO 1012/1106 25025G40KT SHRAGS
PROB40 TEMPO 1021/1103 26030G45KT TSRAGS
TEMPO 1112/1118 24025G40KT=
 

Dietmar Brinschwitz

940593
RG München - NAV
Heute hängen die Wolken tief und es regnet,

aber nichts kann uns davon abbringen, heute den Albrecht-Dürer-Airport zu staffen. Der Regen und "Viktoria" haben den Staub von den Scheiben des Towers gewaschen, so dass wir wie immer vollen Durchblick haben:cool:

Also heute Abend wieder die gewaschenen Flieger rausholen und uns besuchen. Heute habt ih die Qual der Wahl, entweder auf die bekannte Rennstrecke nach DüDo zu gehen oder am EDDN-LATI Event teilzunehmen.

Wetter 🌧🌧💨💨☔:
EDDN 171550Z 20006KT 170V240 9999 -RA FEW024 BKN035 08/07 Q1018 NOSIG

TAF EDDN 171100Z 1712/1812 28005KT 9999 BKN020
TEMPO 1712/1718 BKN012
TEMPO 1717/1812 28015G25KT
PROB30
TEMPO 1802/1807 4000 SHRA BKN012CB
Bis gleich auf der Welle;)
 

Dietmar Brinschwitz

940593
RG München - NAV
Auch am Rosenmontag legen wir uns wieder ins Zeug und fertigen eure Flieger schnellstens ab,
damit es weiter geht z.B. in die Karnevalshochburgen;)

Auch für die VFR Flieger unter euch haben wir für den nötigen Wind unter den Flächen gesorgt, gepaart mit kostenloser Regenwaschanlage🥳

EDDN 240920Z 19006KT 9999 FEW020 06/01 Q1023 NOSIG

TAF EDDN 240500Z 2406/2506 32005KT 9999 SCT025
TEMPO 2408/2412 15007KT
BECMG 2412/2414 OVC012
PROB30
TEMPO 2412/2420 4000 DZRA OVC007
BECMG 2420/2422 21010KT
Bis später....
 
Zuletzt bearbeitet:

Jan Dylla

1378091
Auch am Rosenmontag legen wir uns wieder ins Zeug und fertigen eure Flieger schnelltens ab,
damit es weiter geht z.B. in die Karnevalshochburgen;)

Auch für die VFR Flieger unter euch haben wir für den nötigen Wind unter den Flächen gesorgt, gepaart mit kostenloser Regenwaschanlage🥳

Bis später....
Auch der Trainee aufm Turm würde sich wieder über regen Verkehr freuen ;-)
 

Michael Wellner

1024937
RG München - Event
Einen herzlichen Dank an das ganze Team von EDDN - war ein Vergnügen heute bei Euch VFR unterwegs gewesen zu sein.
Und ganz besonderen Dank für das "Vorziehen" als Nr. 1 vor die RyanAir. Auch nett, wenn die Großen mal auf die Kleinen warten müssen. 😄
 
Oben